sensor_id;sensor_type;location;lat;lon;timestamp;P1;durP1;ratioP1;P2;durP2;ratioP2
10805;SDS011;5455;53.224;6.000;2024-01-30T00:01:58;10.80;;;7.67;;
10805;SDS011;5455;53.224;6.000;2024-01-30T00:04:26;11.47;;;8.07;;
10805;SDS011;5455;53.224;6.000;2024-01-30T00:06:53;10.53;;;8.27;;
10805;SDS011;5455;53.224;6.000;2024-01-30T00:09:21;10.20;;;7.30;;
10805;SDS011;5455;53.224;6.000;2024-01-30T00:12:01;11.73;;;7.80;;
10805;SDS011;5455;53.224;6.000;2024-01-30T00:14:28;10.60;;;8.03;;
10805;SDS011;5455;53.224;6.000;2024-01-30T00:16:55;14.83;;;8.33;;
10805;SDS011;5455;53.224;6.000;2024-01-30T00:19:22;9.60;;;7.93;;
10805;SDS011;5455;53.224;6.000;2024-01-30T00:21:49;12.63;;;8.40;;
10805;SDS011;5455;53.224;6.000;2024-01-30T00:24:16;12.27;;;8.07;;
10805;SDS011;5455;53.224;6.000;2024-01-30T00:26:43;10.90;;;7.87;;
10805;SDS011;5455;53.224;6.000;2024-01-30T00:29:11;12.10;;;7.93;;
10805;SDS011;5455;53.224;6.000;2024-01-30T00:31:39;10.87;;;7.43;;
10805;SDS011;5455;53.224;6.000;2024-01-30T00:34:08;11.57;;;7.33;;
10805;SDS011;5455;53.224;6.000;2024-01-30T00:36:35;12.00;;;7.57;;
10805;SDS011;5455;53.224;6.000;2024-01-30T00:39:03;10.97;;;7.93;;
10805;SDS011;5455;53.224;6.000;2024-01-30T00:41:33;11.40;;;7.83;;
10805;SDS011;5455;53.224;6.000;2024-01-30T00:44:04;10.80;;;8.40;;
10805;SDS011;5455;53.224;6.000;2024-01-30T00:46:31;10.93;;;7.63;;
10805;SDS011;5455;53.224;6.000;2024-01-30T00:48:58;12.27;;;8.57;;
10805;SDS011;5455;53.224;6.000;2024-01-30T00:51:25;13.10;;;7.77;;
10805;SDS011;5455;53.224;6.000;2024-01-30T00:53:52;10.97;;;7.77;;
10805;SDS011;5455;53.224;6.000;2024-01-30T00:56:19;10.43;;;8.07;;
10805;SDS011;5455;53.224;6.000;2024-01-30T00:58:47;12.30;;;8.33;;
10805;SDS011;5455;53.224;6.000;2024-01-30T01:01:14;12.43;;;8.57;;
10805;SDS011;5455;53.224;6.000;2024-01-30T01:03:41;12.90;;;8.27;;
10805;SDS011;5455;53.224;6.000;2024-01-30T01:06:10;10.10;;;7.97;;
10805;SDS011;5455;53.224;6.000;2024-01-30T01:08:37;11.13;;;7.87;;
10805;SDS011;5455;53.224;6.000;2024-01-30T01:11:05;9.63;;;7.63;;
10805;SDS011;5455;53.224;6.000;2024-01-30T01:13:32;15.70;;;8.33;;
10805;SDS011;5455;53.224;6.000;2024-01-30T01:15:59;13.63;;;8.80;;
10805;SDS011;5455;53.224;6.000;2024-01-30T01:18:26;10.87;;;7.80;;
10805;SDS011;5455;53.224;6.000;2024-01-30T01:20:54;10.13;;;7.70;;
10805;SDS011;5455;53.224;6.000;2024-01-30T01:23:21;14.07;;;8.80;;
10805;SDS011;5455;53.224;6.000;2024-01-30T01:25:48;10.10;;;7.67;;
10805;SDS011;5455;53.224;6.000;2024-01-30T01:28:16;11.23;;;8.00;;
10805;SDS011;5455;53.224;6.000;2024-01-30T01:30:43;12.50;;;7.27;;
10805;SDS011;5455;53.224;6.000;2024-01-30T01:33:10;10.67;;;7.70;;
10805;SDS011;5455;53.224;6.000;2024-01-30T01:35:40;11.60;;;7.83;;
10805;SDS011;5455;53.224;6.000;2024-01-30T01:38:07;11.60;;;8.37;;
10805;SDS011;5455;53.224;6.000;2024-01-30T01:40:34;11.70;;;8.00;;
10805;SDS011;5455;53.224;6.000;2024-01-30T01:43:02;9.80;;;7.60;;
10805;SDS011;5455;53.224;6.000;2024-01-30T01:45:31;10.90;;;8.23;;
10805;SDS011;5455;53.224;6.000;2024-01-30T01:47:58;10.83;;;8.23;;
10805;SDS011;5455;53.224;6.000;2024-01-30T01:50:25;10.87;;;7.90;;
10805;SDS011;5455;53.224;6.000;2024-01-30T01:52:53;9.80;;;7.57;;
10805;SDS011;5455;53.224;6.000;2024-01-30T01:55:21;12.67;;;7.53;;
10805;SDS011;5455;53.224;6.000;2024-01-30T01:57:51;10.27;;;8.33;;
10805;SDS011;5455;53.224;6.000;2024-01-30T02:00:20;12.40;;;8.57;;
10805;SDS011;5455;53.224;6.000;2024-01-30T02:02:47;13.07;;;8.70;;
10805;SDS011;5455;53.224;6.000;2024-01-30T02:05:15;11.50;;;7.87;;
10805;SDS011;5455;53.224;6.000;2024-01-30T02:07:43;14.57;;;8.67;;
10805;SDS011;5455;53.224;6.000;2024-01-30T02:10:11;10.67;;;7.33;;
10805;SDS011;5455;53.224;6.000;2024-01-30T02:12:39;11.37;;;8.67;;
10805;SDS011;5455;53.224;6.000;2024-01-30T02:15:06;9.17;;;7.13;;
10805;SDS011;5455;53.224;6.000;2024-01-30T02:17:34;9.57;;;7.37;;
10805;SDS011;5455;53.224;6.000;2024-01-30T02:20:02;10.63;;;7.37;;
10805;SDS011;5455;53.224;6.000;2024-01-30T02:22:30;10.50;;;7.90;;
10805;SDS011;5455;53.224;6.000;2024-01-30T02:25:01;10.37;;;7.47;;
10805;SDS011;5455;53.224;6.000;2024-01-30T02:27:28;11.43;;;8.17;;
10805;SDS011;5455;53.224;6.000;2024-01-30T02:29:56;11.57;;;7.50;;
10805;SDS011;5455;53.224;6.000;2024-01-30T02:32:23;11.03;;;8.10;;
10805;SDS011;5455;53.224;6.000;2024-01-30T02:34:50;10.87;;;7.60;;
10805;SDS011;5455;53.224;6.000;2024-01-30T02:37:17;9.37;;;7.60;;
10805;SDS011;5455;53.224;6.000;2024-01-30T02:39:44;12.47;;;8.03;;
10805;SDS011;5455;53.224;6.000;2024-01-30T02:42:12;11.27;;;7.70;;
10805;SDS011;5455;53.224;6.000;2024-01-30T02:44:39;11.70;;;7.33;;
10805;SDS011;5455;53.224;6.000;2024-01-30T02:47:06;10.67;;;7.30;;
10805;SDS011;5455;53.224;6.000;2024-01-30T02:49:33;10.27;;;7.00;;
10805;SDS011;5455;53.224;6.000;2024-01-30T02:52:00;11.27;;;7.20;;
10805;SDS011;5455;53.224;6.000;2024-01-30T02:54:27;10.23;;;6.53;;
10805;SDS011;5455;53.224;6.000;2024-01-30T02:56:57;9.60;;;7.83;;
10805;SDS011;5455;53.224;6.000;2024-01-30T02:59:24;10.83;;;7.60;;
10805;SDS011;5455;53.224;6.000;2024-01-30T03:01:51;11.53;;;7.70;;
10805;SDS011;5455;53.224;6.000;2024-01-30T03:04:19;9.23;;;7.27;;
10805;SDS011;5455;53.224;6.000;2024-01-30T03:06:46;11.13;;;7.50;;
10805;SDS011;5455;53.224;6.000;2024-01-30T03:09:16;9.50;;;6.97;;
10805;SDS011;5455;53.224;6.000;2024-01-30T03:11:44;11.73;;;8.03;;
10805;SDS011;5455;53.224;6.000;2024-01-30T03:14:11;10.27;;;6.97;;
10805;SDS011;5455;53.224;6.000;2024-01-30T03:16:38;10.90;;;7.13;;
10805;SDS011;5455;53.224;6.000;2024-01-30T03:19:06;10.57;;;7.83;;
10805;SDS011;5455;53.224;6.000;2024-01-30T03:21:36;11.37;;;7.83;;
10805;SDS011;5455;53.224;6.000;2024-01-30T03:24:03;9.73;;;7.20;;
10805;SDS011;5455;53.224;6.000;2024-01-30T03:26:35;9.57;;;7.27;;
10805;SDS011;5455;53.224;6.000;2024-01-30T03:29:02;10.30;;;7.33;;
10805;SDS011;5455;53.224;6.000;2024-01-30T03:31:29;9.87;;;7.33;;
10805;SDS011;5455;53.224;6.000;2024-01-30T03:33:56;9.77;;;6.90;;
10805;SDS011;5455;53.224;6.000;2024-01-30T03:36:23;10.17;;;6.87;;
10805;SDS011;5455;53.224;6.000;2024-01-30T03:38:51;10.70;;;7.33;;
10805;SDS011;5455;53.224;6.000;2024-01-30T03:41:18;10.23;;;7.80;;
10805;SDS011;5455;53.224;6.000;2024-01-30T03:43:45;11.93;;;7.17;;
10805;SDS011;5455;53.224;6.000;2024-01-30T03:46:13;9.90;;;6.83;;
10805;SDS011;5455;53.224;6.000;2024-01-30T03:48:41;9.50;;;7.00;;
10805;SDS011;5455;53.224;6.000;2024-01-30T03:51:08;10.63;;;6.83;;
10805;SDS011;5455;53.224;6.000;2024-01-30T03:53:41;11.23;;;7.10;;
10805;SDS011;5455;53.224;6.000;2024-01-30T03:56:09;8.60;;;6.90;;
10805;SDS011;5455;53.224;6.000;2024-01-30T03:58:36;10.93;;;7.60;;
10805;SDS011;5455;53.224;6.000;2024-01-30T04:01:03;11.17;;;6.73;;
10805;SDS011;5455;53.224;6.000;2024-01-30T04:03:30;9.60;;;6.83;;
10805;SDS011;5455;53.224;6.000;2024-01-30T04:05:57;9.63;;;7.03;;
10805;SDS011;5455;53.224;6.000;2024-01-30T04:08:24;9.13;;;5.90;;
10805;SDS011;5455;53.224;6.000;2024-01-30T04:10:52;9.20;;;6.53;;
10805;SDS011;5455;53.224;6.000;2024-01-30T04:13:18;8.17;;;6.13;;
10805;SDS011;5455;53.224;6.000;2024-01-30T04:15:45;8.97;;;6.43;;
10805;SDS011;5455;53.224;6.000;2024-01-30T04:18:13;7.87;;;6.57;;
10805;SDS011;5455;53.224;6.000;2024-01-30T04:20:40;8.73;;;6.50;;
10805;SDS011;5455;53.224;6.000;2024-01-30T04:23:07;10.87;;;6.50;;
10805;SDS011;5455;53.224;6.000;2024-01-30T04:25:34;13.03;;;6.80;;
10805;SDS011;5455;53.224;6.000;2024-01-30T04:28:01;7.73;;;6.03;;
10805;SDS011;5455;53.224;6.000;2024-01-30T04:30:28;8.80;;;6.27;;
10805;SDS011;5455;53.224;6.000;2024-01-30T04:32:56;7.07;;;5.77;;
10805;SDS011;5455;53.224;6.000;2024-01-30T04:35:23;8.77;;;6.40;;
10805;SDS011;5455;53.224;6.000;2024-01-30T04:37:52;9.20;;;6.63;;
10805;SDS011;5455;53.224;6.000;2024-01-30T04:40:22;10.03;;;6.27;;
10805;SDS011;5455;53.224;6.000;2024-01-30T04:42:50;9.50;;;6.53;;
10805;SDS011;5455;53.224;6.000;2024-01-30T04:45:17;7.97;;;6.10;;
10805;SDS011;5455;53.224;6.000;2024-01-30T04:47:44;9.50;;;6.57;;
10805;SDS011;5455;53.224;6.000;2024-01-30T04:50:11;7.43;;;6.03;;
10805;SDS011;5455;53.224;6.000;2024-01-30T04:52:38;10.23;;;6.53;;
10805;SDS011;5455;53.224;6.000;2024-01-30T04:55:05;8.53;;;6.60;;
10805;SDS011;5455;53.224;6.000;2024-01-30T04:57:32;7.77;;;6.53;;
10805;SDS011;5455;53.224;6.000;2024-01-30T05:00:00;7.87;;;5.83;;
10805;SDS011;5455;53.224;6.000;2024-01-30T05:02:27;8.07;;;6.10;;
10805;SDS011;5455;53.224;6.000;2024-01-30T05:04:54;8.40;;;5.93;;
10805;SDS011;5455;53.224;6.000;2024-01-30T05:07:21;9.43;;;6.03;;
10805;SDS011;5455;53.224;6.000;2024-01-30T05:09:48;7.80;;;5.50;;
10805;SDS011;5455;53.224;6.000;2024-01-30T05:12:15;10.00;;;6.33;;
10805;SDS011;5455;53.224;6.000;2024-01-30T05:14:42;11.67;;;6.40;;
10805;SDS011;5455;53.224;6.000;2024-01-30T05:17:10;8.60;;;6.07;;
10805;SDS011;5455;53.224;6.000;2024-01-30T05:19:39;8.13;;;5.37;;
10805;SDS011;5455;53.224;6.000;2024-01-30T05:22:06;8.33;;;5.90;;
10805;SDS011;5455;53.224;6.000;2024-01-30T05:24:33;11.13;;;6.23;;
10805;SDS011;5455;53.224;6.000;2024-01-30T05:27:00;7.87;;;6.33;;
10805;SDS011;5455;53.224;6.000;2024-01-30T05:29:27;8.40;;;6.33;;
10805;SDS011;5455;53.224;6.000;2024-01-30T05:31:54;6.77;;;5.53;;
10805;SDS011;5455;53.224;6.000;2024-01-30T05:34:21;9.37;;;6.30;;
10805;SDS011;5455;53.224;6.000;2024-01-30T05:36:48;8.27;;;5.83;;
10805;SDS011;5455;53.224;6.000;2024-01-30T05:39:15;6.87;;;4.33;;
10805;SDS011;5455;53.224;6.000;2024-01-30T05:41:42;7.50;;;5.83;;
10805;SDS011;5455;53.224;6.000;2024-01-30T05:44:09;8.87;;;6.70;;
10805;SDS011;5455;53.224;6.000;2024-01-30T05:46:36;7.93;;;5.77;;
10805;SDS011;5455;53.224;6.000;2024-01-30T05:49:03;8.27;;;5.87;;
10805;SDS011;5455;53.224;6.000;2024-01-30T05:51:30;8.77;;;5.77;;
10805;SDS011;5455;53.224;6.000;2024-01-30T05:53:57;9.70;;;5.53;;
10805;SDS011;5455;53.224;6.000;2024-01-30T05:56:32;6.87;;;5.37;;
10805;SDS011;5455;53.224;6.000;2024-01-30T05:58:58;8.83;;;5.83;;
10805;SDS011;5455;53.224;6.000;2024-01-30T06:01:26;10.67;;;5.60;;
10805;SDS011;5455;53.224;6.000;2024-01-30T06:03:53;8.37;;;6.03;;
10805;SDS011;5455;53.224;6.000;2024-01-30T06:06:20;7.90;;;5.33;;
10805;SDS011;5455;53.224;6.000;2024-01-30T06:08:48;6.97;;;5.70;;
10805;SDS011;5455;53.224;6.000;2024-01-30T06:11:15;9.30;;;6.07;;
10805;SDS011;5455;53.224;6.000;2024-01-30T06:13:41;9.07;;;5.83;;
10805;SDS011;5455;53.224;6.000;2024-01-30T06:16:09;8.13;;;6.17;;
10805;SDS011;5455;53.224;6.000;2024-01-30T06:18:39;8.33;;;6.00;;
10805;SDS011;5455;53.224;6.000;2024-01-30T06:21:06;7.67;;;6.30;;
10805;SDS011;5455;53.224;6.000;2024-01-30T06:23:36;7.87;;;5.30;;
10805;SDS011;5455;53.224;6.000;2024-01-30T06:26:03;9.10;;;5.83;;
10805;SDS011;5455;53.224;6.000;2024-01-30T06:28:30;9.73;;;6.10;;
10805;SDS011;5455;53.224;6.000;2024-01-30T06:30:58;8.10;;;6.00;;
10805;SDS011;5455;53.224;6.000;2024-01-30T06:33:27;8.30;;;5.63;;
10805;SDS011;5455;53.224;6.000;2024-01-30T06:35:54;7.10;;;5.30;;
10805;SDS011;5455;53.224;6.000;2024-01-30T06:38:21;9.83;;;6.53;;
10805;SDS011;5455;53.224;6.000;2024-01-30T06:40:48;9.10;;;6.50;;
10805;SDS011;5455;53.224;6.000;2024-01-30T06:43:15;9.40;;;5.70;;
10805;SDS011;5455;53.224;6.000;2024-01-30T06:45:42;7.97;;;5.70;;
10805;SDS011;5455;53.224;6.000;2024-01-30T06:48:10;7.50;;;5.70;;
10805;SDS011;5455;53.224;6.000;2024-01-30T06:50:37;7.37;;;5.73;;
10805;SDS011;5455;53.224;6.000;2024-01-30T06:53:04;9.83;;;6.10;;
10805;SDS011;5455;53.224;6.000;2024-01-30T06:55:31;8.80;;;6.30;;
10805;SDS011;5455;53.224;6.000;2024-01-30T06:57:58;7.57;;;5.90;;
10805;SDS011;5455;53.224;6.000;2024-01-30T07:00:26;9.97;;;6.60;;
10805;SDS011;5455;53.224;6.000;2024-01-30T07:02:53;9.57;;;6.60;;
10805;SDS011;5455;53.224;6.000;2024-01-30T07:05:20;8.30;;;5.50;;
10805;SDS011;5455;53.224;6.000;2024-01-30T07:07:50;7.10;;;5.57;;
10805;SDS011;5455;53.224;6.000;2024-01-30T07:10:17;8.87;;;5.93;;
10805;SDS011;5455;53.224;6.000;2024-01-30T07:12:44;8.67;;;6.00;;
10805;SDS011;5455;53.224;6.000;2024-01-30T07:15:12;9.70;;;6.10;;
10805;SDS011;5455;53.224;6.000;2024-01-30T07:17:41;8.83;;;5.77;;
10805;SDS011;5455;53.224;6.000;2024-01-30T07:20:08;9.10;;;5.90;;
10805;SDS011;5455;53.224;6.000;2024-01-30T07:22:40;9.57;;;6.57;;
10805;SDS011;5455;53.224;6.000;2024-01-30T07:25:07;7.87;;;6.10;;
10805;SDS011;5455;53.224;6.000;2024-01-30T07:27:35;8.77;;;6.20;;
10805;SDS011;5455;53.224;6.000;2024-01-30T07:30:03;8.27;;;6.30;;
10805;SDS011;5455;53.224;6.000;2024-01-30T07:32:30;7.47;;;6.17;;
10805;SDS011;5455;53.224;6.000;2024-01-30T07:34:58;10.27;;;6.70;;
10805;SDS011;5455;53.224;6.000;2024-01-30T07:37:34;8.57;;;6.10;;
10805;SDS011;5455;53.224;6.000;2024-01-30T07:40:02;8.27;;;6.27;;
10805;SDS011;5455;53.224;6.000;2024-01-30T07:42:30;8.03;;;6.47;;
10805;SDS011;5455;53.224;6.000;2024-01-30T07:44:57;10.47;;;6.23;;
10805;SDS011;5455;53.224;6.000;2024-01-30T07:47:24;7.67;;;6.00;;
10805;SDS011;5455;53.224;6.000;2024-01-30T07:49:52;9.30;;;6.67;;
10805;SDS011;5455;53.224;6.000;2024-01-30T07:52:19;8.33;;;6.17;;
10805;SDS011;5455;53.224;6.000;2024-01-30T07:54:49;7.57;;;5.70;;
10805;SDS011;5455;53.224;6.000;2024-01-30T07:57:17;11.77;;;6.17;;
10805;SDS011;5455;53.224;6.000;2024-01-30T07:59:44;9.40;;;6.00;;
10805;SDS011;5455;53.224;6.000;2024-01-30T08:02:12;8.27;;;5.73;;
10805;SDS011;5455;53.224;6.000;2024-01-30T08:04:40;8.67;;;6.23;;
10805;SDS011;5455;53.224;6.000;2024-01-30T08:07:08;7.73;;;5.87;;
10805;SDS011;5455;53.224;6.000;2024-01-30T08:09:35;9.70;;;6.07;;
10805;SDS011;5455;53.224;6.000;2024-01-30T08:12:02;8.03;;;6.20;;
10805;SDS011;5455;53.224;6.000;2024-01-30T08:14:30;9.10;;;6.40;;
10805;SDS011;5455;53.224;6.000;2024-01-30T08:16:57;7.63;;;5.53;;
10805;SDS011;5455;53.224;6.000;2024-01-30T08:19:24;8.53;;;5.90;;
10805;SDS011;5455;53.224;6.000;2024-01-30T08:21:51;8.13;;;5.73;;
10805;SDS011;5455;53.224;6.000;2024-01-30T08:24:18;10.67;;;6.13;;
10805;SDS011;5455;53.224;6.000;2024-01-30T08:26:45;8.53;;;6.07;;
10805;SDS011;5455;53.224;6.000;2024-01-30T08:29:12;7.73;;;5.77;;
10805;SDS011;5455;53.224;6.000;2024-01-30T08:31:39;9.27;;;6.57;;
10805;SDS011;5455;53.224;6.000;2024-01-30T08:34:08;7.43;;;5.93;;
10805;SDS011;5455;53.224;6.000;2024-01-30T08:36:36;8.43;;;6.10;;
10805;SDS011;5455;53.224;6.000;2024-01-30T08:39:03;7.97;;;6.10;;
10805;SDS011;5455;53.224;6.000;2024-01-30T08:41:32;9.20;;;5.73;;
10805;SDS011;5455;53.224;6.000;2024-01-30T08:43:59;11.50;;;6.53;;
10805;SDS011;5455;53.224;6.000;2024-01-30T08:46:26;6.73;;;5.80;;
10805;SDS011;5455;53.224;6.000;2024-01-30T08:48:53;9.00;;;5.83;;
10805;SDS011;5455;53.224;6.000;2024-01-30T08:51:20;13.87;;;5.87;;
10805;SDS011;5455;53.224;6.000;2024-01-30T08:53:47;7.80;;;5.20;;
10805;SDS011;5455;53.224;6.000;2024-01-30T08:56:14;8.03;;;5.07;;
10805;SDS011;5455;53.224;6.000;2024-01-30T08:58:43;10.13;;;6.47;;
10805;SDS011;5455;53.224;6.000;2024-01-30T09:01:10;7.57;;;5.27;;
10805;SDS011;5455;53.224;6.000;2024-01-30T09:03:37;7.57;;;5.10;;
10805;SDS011;5455;53.224;6.000;2024-01-30T09:06:11;9.93;;;5.13;;
10805;SDS011;5455;53.224;6.000;2024-01-30T09:08:39;8.40;;;4.90;;
10805;SDS011;5455;53.224;6.000;2024-01-30T09:11:09;9.03;;;5.90;;
10805;SDS011;5455;53.224;6.000;2024-01-30T09:13:37;10.17;;;6.03;;
10805;SDS011;5455;53.224;6.000;2024-01-30T09:16:05;9.23;;;5.80;;
10805;SDS011;5455;53.224;6.000;2024-01-30T09:18:33;7.43;;;5.73;;
10805;SDS011;5455;53.224;6.000;2024-01-30T09:21:00;9.60;;;5.10;;
10805;SDS011;5455;53.224;6.000;2024-01-30T09:23:27;11.03;;;5.80;;
10805;SDS011;5455;53.224;6.000;2024-01-30T09:25:55;12.93;;;5.87;;
10805;SDS011;5455;53.224;6.000;2024-01-30T09:28:22;8.83;;;6.00;;
10805;SDS011;5455;53.224;6.000;2024-01-30T09:30:52;9.70;;;5.67;;
10805;SDS011;5455;53.224;6.000;2024-01-30T09:33:19;9.03;;;5.83;;
10805;SDS011;5455;53.224;6.000;2024-01-30T09:35:47;9.63;;;5.20;;
10805;SDS011;5455;53.224;6.000;2024-01-30T09:38:14;8.10;;;5.63;;
10805;SDS011;5455;53.224;6.000;2024-01-30T09:40:41;7.90;;;5.10;;
10805;SDS011;5455;53.224;6.000;2024-01-30T09:43:09;8.13;;;5.70;;
10805;SDS011;5455;53.224;6.000;2024-01-30T09:45:42;12.70;;;6.80;;
10805;SDS011;5455;53.224;6.000;2024-01-30T09:48:11;8.77;;;5.43;;
10805;SDS011;5455;53.224;6.000;2024-01-30T09:50:46;6.40;;;4.60;;
10805;SDS011;5455;53.224;6.000;2024-01-30T09:53:13;8.87;;;5.23;;
10805;SDS011;5455;53.224;6.000;2024-01-30T09:55:42;11.03;;;6.33;;
10805;SDS011;5455;53.224;6.000;2024-01-30T09:58:09;9.90;;;5.27;;
10805;SDS011;5455;53.224;6.000;2024-01-30T10:00:36;9.43;;;5.30;;
10805;SDS011;5455;53.224;6.000;2024-01-30T10:03:03;9.87;;;5.33;;
10805;SDS011;5455;53.224;6.000;2024-01-30T10:05:31;8.57;;;5.33;;
10805;SDS011;5455;53.224;6.000;2024-01-30T10:08:01;10.47;;;5.73;;
10805;SDS011;5455;53.224;6.000;2024-01-30T10:10:32;6.73;;;5.07;;
10805;SDS011;5455;53.224;6.000;2024-01-30T10:12:59;7.47;;;5.00;;
10805;SDS011;5455;53.224;6.000;2024-01-30T10:15:30;10.47;;;5.63;;
10805;SDS011;5455;53.224;6.000;2024-01-30T10:17:57;11.27;;;5.97;;
10805;SDS011;5455;53.224;6.000;2024-01-30T10:20:24;11.93;;;5.97;;
10805;SDS011;5455;53.224;6.000;2024-01-30T10:22:52;7.20;;;4.77;;
10805;SDS011;5455;53.224;6.000;2024-01-30T10:25:19;9.47;;;5.53;;
10805;SDS011;5455;53.224;6.000;2024-01-30T10:27:52;9.23;;;5.97;;
10805;SDS011;5455;53.224;6.000;2024-01-30T10:30:22;8.50;;;4.90;;
10805;SDS011;5455;53.224;6.000;2024-01-30T10:32:49;9.23;;;5.17;;
10805;SDS011;5455;53.224;6.000;2024-01-30T10:35:18;12.00;;;5.37;;
10805;SDS011;5455;53.224;6.000;2024-01-30T10:37:48;9.47;;;5.13;;
10805;SDS011;5455;53.224;6.000;2024-01-30T10:40:15;8.57;;;4.83;;
10805;SDS011;5455;53.224;6.000;2024-01-30T10:42:43;8.07;;;4.30;;
10805;SDS011;5455;53.224;6.000;2024-01-30T10:45:12;5.60;;;3.33;;
10805;SDS011;5455;53.224;6.000;2024-01-30T10:47:40;7.77;;;3.40;;
10805;SDS011;5455;53.224;6.000;2024-01-30T10:50:10;5.60;;;2.77;;
10805;SDS011;5455;53.224;6.000;2024-01-30T10:52:38;7.00;;;3.13;;
10805;SDS011;5455;53.224;6.000;2024-01-30T10:55:06;5.83;;;2.87;;
10805;SDS011;5455;53.224;6.000;2024-01-30T10:57:34;3.93;;;2.27;;
10805;SDS011;5455;53.224;6.000;2024-01-30T11:00:05;6.53;;;1.80;;
10805;SDS011;5455;53.224;6.000;2024-01-30T11:02:38;5.47;;;1.90;;
10805;SDS011;5455;53.224;6.000;2024-01-30T11:05:07;2.63;;;1.20;;
10805;SDS011;5455;53.224;6.000;2024-01-30T11:07:35;2.23;;;0.90;;
10805;SDS011;5455;53.224;6.000;2024-01-30T11:10:03;3.03;;;0.93;;
10805;SDS011;5455;53.224;6.000;2024-01-30T11:12:31;0.73;;;0.43;;
10805;SDS011;5455;53.224;6.000;2024-01-30T11:15:09;1.37;;;0.50;;
10805;SDS011;5455;53.224;6.000;2024-01-30T11:22:52;2.93;;;1.20;;
10805;SDS011;5455;53.224;6.000;2024-01-30T11:25:20;2.17;;;0.70;;
10805;SDS011;5455;53.224;6.000;2024-01-30T11:27:51;2.73;;;0.50;;
10805;SDS011;5455;53.224;6.000;2024-01-30T11:30:30;1.90;;;0.50;;
10805;SDS011;5455;53.224;6.000;2024-01-30T11:35:33;5.53;;;3.37;;
10805;SDS011;5455;53.224;6.000;2024-01-30T11:38:03;2.97;;;1.37;;
10805;SDS011;5455;53.224;6.000;2024-01-30T11:40:31;1.87;;;1.00;;
10805;SDS011;5455;53.224;6.000;2024-01-30T11:43:01;2.50;;;0.90;;
10805;SDS011;5455;53.224;6.000;2024-01-30T11:45:30;6.73;;;1.57;;
10805;SDS011;5455;53.224;6.000;2024-01-30T11:47:58;3.67;;;1.20;;
10805;SDS011;5455;53.224;6.000;2024-01-30T11:50:32;1.57;;;0.93;;
10805;SDS011;5455;53.224;6.000;2024-01-30T11:53:00;2.93;;;1.00;;
10805;SDS011;5455;53.224;6.000;2024-01-30T11:55:31;6.87;;;2.57;;
10805;SDS011;5455;53.224;6.000;2024-01-30T11:58:01;3.20;;;0.90;;
10805;SDS011;5455;53.224;6.000;2024-01-30T12:00:29;2.43;;;1.07;;
10805;SDS011;5455;53.224;6.000;2024-01-30T12:03:01;1.80;;;0.93;;
10805;SDS011;5455;53.224;6.000;2024-01-30T12:05:30;4.03;;;1.23;;
10805;SDS011;5455;53.224;6.000;2024-01-30T12:07:58;3.90;;;1.00;;
10805;SDS011;5455;53.224;6.000;2024-01-30T12:10:27;3.37;;;1.60;;
10805;SDS011;5455;53.224;6.000;2024-01-30T12:12:54;3.27;;;1.10;;
10805;SDS011;5455;53.224;6.000;2024-01-30T12:15:22;3.83;;;1.70;;
10805;SDS011;5455;53.224;6.000;2024-01-30T12:17:49;1.50;;;0.80;;
10805;SDS011;5455;53.224;6.000;2024-01-30T12:20:20;3.37;;;1.03;;
10805;SDS011;5455;53.224;6.000;2024-01-30T12:22:49;1.20;;;0.60;;
10805;SDS011;5455;53.224;6.000;2024-01-30T12:25:17;3.60;;;0.80;;
10805;SDS011;5455;53.224;6.000;2024-01-30T12:27:48;2.83;;;0.70;;
10805;SDS011;5455;53.224;6.000;2024-01-30T12:30:20;5.27;;;1.83;;
10805;SDS011;5455;53.224;6.000;2024-01-30T12:32:49;2.00;;;0.70;;
10805;SDS011;5455;53.224;6.000;2024-01-30T12:35:19;4.97;;;1.97;;
10805;SDS011;5455;53.224;6.000;2024-01-30T12:37:48;3.67;;;1.40;;
10805;SDS011;5455;53.224;6.000;2024-01-30T12:40:16;5.80;;;1.73;;
10805;SDS011;5455;53.224;6.000;2024-01-30T12:42:52;1.43;;;0.90;;
10805;SDS011;5455;53.224;6.000;2024-01-30T12:45:20;1.53;;;0.77;;
10805;SDS011;5455;53.224;6.000;2024-01-30T12:47:49;3.33;;;0.90;;
10805;SDS011;5455;53.224;6.000;2024-01-30T12:50:17;2.63;;;0.87;;
10805;SDS011;5455;53.224;6.000;2024-01-30T12:52:45;2.27;;;0.80;;
10805;SDS011;5455;53.224;6.000;2024-01-30T12:55:16;1.37;;;0.80;;
10805;SDS011;5455;53.224;6.000;2024-01-30T12:57:45;3.80;;;0.80;;
10805;SDS011;5455;53.224;6.000;2024-01-30T13:00:13;1.87;;;0.67;;
10805;SDS011;5455;53.224;6.000;2024-01-30T13:02:40;0.97;;;0.50;;
10805;SDS011;5455;53.224;6.000;2024-01-30T13:05:09;4.30;;;0.70;;
10805;SDS011;5455;53.224;6.000;2024-01-30T13:07:36;3.03;;;0.67;;
10805;SDS011;5455;53.224;6.000;2024-01-30T13:10:03;1.40;;;0.50;;
10805;SDS011;5455;53.224;6.000;2024-01-30T13:12:31;0.87;;;0.60;;
10805;SDS011;5455;53.224;6.000;2024-01-30T13:15:02;2.50;;;1.00;;
10805;SDS011;5455;53.224;6.000;2024-01-30T13:17:31;1.17;;;0.70;;
10805;SDS011;5455;53.224;6.000;2024-01-30T13:19:58;3.93;;;0.97;;
10805;SDS011;5455;53.224;6.000;2024-01-30T13:22:36;2.47;;;0.90;;
10805;SDS011;5455;53.224;6.000;2024-01-30T13:25:06;2.73;;;0.73;;
10805;SDS011;5455;53.224;6.000;2024-01-30T13:27:34;2.27;;;0.93;;
10805;SDS011;5455;53.224;6.000;2024-01-30T13:30:02;1.10;;;0.57;;
10805;SDS011;5455;53.224;6.000;2024-01-30T13:32:30;1.00;;;0.70;;
10805;SDS011;5455;53.224;6.000;2024-01-30T13:34:57;1.80;;;0.77;;
10805;SDS011;5455;53.224;6.000;2024-01-30T13:37:25;1.47;;;0.80;;
10805;SDS011;5455;53.224;6.000;2024-01-30T13:39:52;2.40;;;1.03;;
10805;SDS011;5455;53.224;6.000;2024-01-30T13:42:19;2.60;;;1.27;;
10805;SDS011;5455;53.224;6.000;2024-01-30T13:44:46;1.47;;;0.70;;
10805;SDS011;5455;53.224;6.000;2024-01-30T13:47:13;0.63;;;0.60;;
10805;SDS011;5455;53.224;6.000;2024-01-30T13:49:40;1.00;;;0.73;;
10805;SDS011;5455;53.224;6.000;2024-01-30T13:52:08;2.37;;;0.83;;
10805;SDS011;5455;53.224;6.000;2024-01-30T13:54:35;1.00;;;0.80;;
10805;SDS011;5455;53.224;6.000;2024-01-30T13:57:02;2.17;;;0.90;;
10805;SDS011;5455;53.224;6.000;2024-01-30T13:59:29;4.43;;;1.63;;
10805;SDS011;5455;53.224;6.000;2024-01-30T14:01:57;2.60;;;0.70;;
10805;SDS011;5455;53.224;6.000;2024-01-30T14:04:24;2.87;;;0.80;;
10805;SDS011;5455;53.224;6.000;2024-01-30T14:06:51;1.60;;;0.70;;
10805;SDS011;5455;53.224;6.000;2024-01-30T14:09:30;3.57;;;0.83;;
10805;SDS011;5455;53.224;6.000;2024-01-30T14:11:59;1.80;;;0.80;;
10805;SDS011;5455;53.224;6.000;2024-01-30T14:14:26;3.57;;;1.00;;
10805;SDS011;5455;53.224;6.000;2024-01-30T14:16:53;1.33;;;0.70;;
10805;SDS011;5455;53.224;6.000;2024-01-30T14:19:20;2.80;;;0.90;;
10805;SDS011;5455;53.224;6.000;2024-01-30T14:21:48;2.43;;;0.87;;
10805;SDS011;5455;53.224;6.000;2024-01-30T14:24:15;2.13;;;0.83;;
10805;SDS011;5455;53.224;6.000;2024-01-30T14:26:42;2.30;;;0.80;;
10805;SDS011;5455;53.224;6.000;2024-01-30T14:29:10;1.40;;;0.70;;
10805;SDS011;5455;53.224;6.000;2024-01-30T14:31:37;2.20;;;0.73;;
10805;SDS011;5455;53.224;6.000;2024-01-30T14:34:05;1.33;;;0.70;;
10805;SDS011;5455;53.224;6.000;2024-01-30T14:36:32;2.27;;;0.73;;
10805;SDS011;5455;53.224;6.000;2024-01-30T14:38:59;2.27;;;0.80;;
10805;SDS011;5455;53.224;6.000;2024-01-30T14:41:26;1.20;;;0.60;;
10805;SDS011;5455;53.224;6.000;2024-01-30T14:43:53;2.57;;;0.70;;
10805;SDS011;5455;53.224;6.000;2024-01-30T14:46:21;2.07;;;0.90;;
10805;SDS011;5455;53.224;6.000;2024-01-30T14:48:49;2.07;;;0.83;;
10805;SDS011;5455;53.224;6.000;2024-01-30T14:51:18;2.03;;;0.60;;
10805;SDS011;5455;53.224;6.000;2024-01-30T14:53:45;1.53;;;0.60;;
10805;SDS011;5455;53.224;6.000;2024-01-30T14:56:13;2.17;;;0.70;;
10805;SDS011;5455;53.224;6.000;2024-01-30T14:58:40;1.23;;;0.90;;
10805;SDS011;5455;53.224;6.000;2024-01-30T15:01:07;1.57;;;0.97;;
10805;SDS011;5455;53.224;6.000;2024-01-30T15:03:35;1.13;;;0.70;;
10805;SDS011;5455;53.224;6.000;2024-01-30T15:06:02;2.87;;;0.87;;
10805;SDS011;5455;53.224;6.000;2024-01-30T15:08:31;0.87;;;0.50;;
10805;SDS011;5455;53.224;6.000;2024-01-30T15:10:58;0.60;;;0.50;;